createdAt,value
2016-11-07T11:03:08.929Z,85.82
2016-11-07T11:04:08.199Z,85.63
2016-11-07T11:05:58.361Z,85.53
2016-11-07T11:07:23.277Z,85.53
2016-11-07T11:08:33.632Z,84.7
2016-11-07T11:09:44.629Z,84.42
2016-11-07T11:10:54.991Z,84.22
2016-11-07T11:12:05.395Z,84.99
2016-11-07T11:13:15.962Z,84.8
2016-11-07T11:14:26.590Z,84.9
2016-11-07T11:15:36.939Z,84.42
2016-11-07T11:16:47.806Z,84.03
2016-11-07T11:17:58.164Z,83.36
2016-11-07T11:19:08.517Z,83.26
2016-11-07T11:20:18.997Z,82.24
2016-11-07T11:21:29.371Z,82.43
2016-11-07T11:22:39.758Z,81.66
2016-11-07T11:23:50.123Z,81.09
2016-11-07T11:26:40.730Z,80.69
2016-11-07T11:27:51.121Z,80.16
2016-11-07T11:29:16.047Z,79.68
2016-11-07T11:30:26.738Z,79.68
2016-11-07T11:31:37.334Z,79.49
2016-11-07T11:32:47.840Z,79.68
2016-11-07T11:33:58.334Z,79.58
2016-11-07T11:35:09.011Z,79.49
2016-11-07T11:36:19.897Z,78.91
2016-11-07T11:37:30.403Z,79.43
2016-11-07T11:38:40.935Z,79.58
2016-11-07T11:39:51.450Z,79.19
2016-11-07T11:41:16.459Z,78.46
2016-11-07T11:42:27.216Z,78.36
2016-11-07T11:43:52.345Z,78.17
2016-11-07T11:45:02.830Z,77.3
2016-11-07T11:46:13.340Z,76.57
2016-11-07T11:47:24.471Z,76.43
2016-11-07T11:48:34.975Z,76.34
2016-11-07T11:49:45.887Z,75.95
2016-11-07T11:50:56.387Z,75.85
2016-11-07T11:52:07.084Z,76.53
2016-11-07T11:53:18.172Z,76.15
2016-11-07T11:54:29.907Z,76.72
2016-11-07T11:55:40.420Z,76.63
2016-11-07T11:56:50.938Z,76.67
2016-11-07T11:58:01.637Z,76.47
2016-11-07T12:00:52.922Z,76.09
2016-11-07T12:02:03.423Z,75.06
2016-11-07T12:03:28.442Z,75.16
2016-11-07T12:04:39.035Z,75.26
2016-11-07T12:05:49.416Z,74.38
2016-11-07T12:07:01.327Z,73.65
2016-11-07T12:08:11.716Z,72.88
2016-11-07T12:09:22.590Z,71.36
2016-11-07T12:10:32.981Z,70.2
2016-11-07T12:11:43.375Z,70.4
2016-11-07T12:12:53.760Z,70.24
2016-11-07T12:14:04.152Z,69.37
2016-11-07T12:15:14.645Z,68.24
2016-11-07T12:16:25.046Z,68.05
2016-11-07T12:17:35.610Z,68.24
2016-11-07T12:20:10.980Z,64.53
2016-11-07T12:21:21.458Z,64.24
2016-11-07T12:22:31.843Z,63.75
2016-11-07T12:23:42.223Z,64.34
2016-11-07T12:24:52.605Z,63.85
2016-11-07T12:26:03.395Z,63.75
2016-11-07T12:27:13.784Z,63.1
2016-11-07T12:28:24.186Z,63.3
2016-11-07T12:29:34.566Z,63.1
2016-11-07T12:30:44.959Z,62.55
2016-11-07T12:31:55.463Z,62.26
2016-11-07T12:33:05.840Z,61.19
2016-11-07T12:34:16.264Z,61.88
2016-11-07T12:35:26.638Z,60.94
2016-11-07T12:36:37.034Z,59.87
2016-11-07T12:37:47.427Z,59.51
2016-11-07T12:38:57.818Z,60
2016-11-07T12:40:08.207Z,60.28
2016-11-07T12:41:18.602Z,58.25
2016-11-07T12:42:30.398Z,58.15
2016-11-07T12:43:40.778Z,58.76
2016-11-07T12:45:05.725Z,58.28
2016-11-07T12:46:16.117Z,58.31
2016-11-07T12:47:26.515Z,58.69
2016-11-07T12:48:37.110Z,56.07
2016-11-07T12:49:47.610Z,55.9
2016-11-07T12:50:58.013Z,55.41
2016-11-07T12:52:08.420Z,55.8
2016-11-07T12:53:19.711Z,55.9
2016-11-07T12:54:30.119Z,55.61
2016-11-07T12:55:40.931Z,55.05
2016-11-07T12:56:51.372Z,55.25
2016-11-07T12:58:01.781Z,54.93
2016-11-07T12:59:12.379Z,55.22
2016-11-07T13:00:23.022Z,54.44
2016-11-07T13:01:33.520Z,55.03
2016-11-07T13:02:44.419Z,55.68
2016-11-07T13:03:54.924Z,56.39
2016-11-07T13:05:05.428Z,55.61
2016-11-07T13:06:15.933Z,54.64
2016-11-07T13:07:26.831Z,55.05
2016-11-07T13:08:37.338Z,54.08
2016-11-07T13:09:47.877Z,55.03
2016-11-07T13:11:13.226Z,55.03
2016-11-07T13:12:24.451Z,53.96
2016-11-07T13:13:35.577Z,53.69
2016-11-07T13:15:00.708Z,53.5
2016-11-07T13:16:11.335Z,52.33
2016-11-07T13:17:21.962Z,52.62
2016-11-07T13:18:32.586Z,52.26
2016-11-07T13:19:43.206Z,51.48
2016-11-07T13:20:53.826Z,51.87
2016-11-07T13:22:04.649Z,51.87
2016-11-07T13:23:15.259Z,51.87
2016-11-07T13:24:26.389Z,52.16
2016-11-07T13:25:37.028Z,52.16
2016-11-07T13:26:47.693Z,52.36
2016-11-07T13:27:58.320Z,52.48
2016-11-07T13:29:08.974Z,51.9
2016-11-07T13:30:19.580Z,52.09
2016-11-07T13:31:30.199Z,52.06
2016-11-07T13:32:41.023Z,52.36
2016-11-07T13:33:51.845Z,50.73
2016-11-07T13:35:03.161Z,51.02
2016-11-07T13:36:28.698Z,49.27
2016-11-07T13:37:39.317Z,48.71
2016-11-07T13:38:49.936Z,49.22
2016-11-07T13:40:00.557Z,49.8
2016-11-07T13:41:11.377Z,48.63
2016-11-07T13:42:22.225Z,49.99
2016-11-07T13:43:47.771Z,49.71
2016-11-07T13:44:58.407Z,48.8
2016-11-07T13:46:23.965Z,49.49
2016-11-07T13:47:34.500Z,50.36
2016-11-07T13:48:45.237Z,50.09
2016-11-07T13:49:55.797Z,49.41
2016-11-07T13:51:06.730Z,49.32
2016-11-07T13:52:17.452Z,48.34
2016-11-07T13:53:28.190Z,48.93
2016-11-07T13:54:38.721Z,49.12
2016-11-07T13:55:49.747Z,49.51
2016-11-07T13:57:00.279Z,49.97
2016-11-07T13:58:11.000Z,49.88
2016-11-07T13:59:21.535Z,50.34
2016-11-07T14:01:57.333Z,51.84
2016-11-07T14:03:07.860Z,52.59
2016-11-07T14:04:18.482Z,52.89
2016-11-07T14:05:29.069Z,52.89
2016-11-07T14:06:54.158Z,53.08
2016-11-07T14:08:04.895Z,52.79
2016-11-07T14:09:15.639Z,52.62
2016-11-07T14:10:26.366Z,52.23
2016-11-07T14:11:37.442Z,52.04
2016-11-07T14:12:48.574Z,51.26
2016-11-07T14:13:59.109Z,52.43
2016-11-07T14:15:10.043Z,50.51
2016-11-07T14:16:20.828Z,51.29
2016-11-07T14:17:32.263Z,51.19
2016-11-07T14:18:42.804Z,50.21
2016-11-07T14:19:53.333Z,50.12
2016-11-07T14:21:03.866Z,50.41
2016-11-07T14:22:14.402Z,50.12
2016-11-07T14:26:15.626Z,51.19
2016-11-07T14:27:26.345Z,51.09
2016-11-07T14:28:37.663Z,50.31
2016-11-07T14:29:48.698Z,50.12
2016-11-07T14:30:59.269Z,50.43
2016-11-07T14:32:09.896Z,50.14
2016-11-07T14:33:20.521Z,50.21
2016-11-07T14:34:31.148Z,50.41
2016-11-07T14:35:42.176Z,50.12
2016-11-07T14:36:52.797Z,50.12
2016-11-07T14:38:03.422Z,50.8
2016-11-07T14:39:14.449Z,50.12
2016-11-07T14:40:39.714Z,50.12
2016-11-07T14:41:50.563Z,50.51
2016-11-07T14:43:15.699Z,50.8
2016-11-07T14:44:26.328Z,50.8
2016-11-07T14:45:36.949Z,50.29
2016-11-07T14:47:58.881Z,50.31
2016-11-07T14:49:09.501Z,50.02
2016-11-07T14:50:34.630Z,50.12
2016-11-07T14:52:14.272Z,50.41
2016-11-07T14:53:25.594Z,50.31
2016-11-07T14:54:36.607Z,50.41
2016-11-07T14:55:47.225Z,50.21
2016-11-07T14:57:13.006Z,50.6
2016-11-07T14:58:23.672Z,51.09
2016-11-07T14:59:34.515Z,50.99
2016-11-07T15:00:45.169Z,51.87
2016-11-07T15:02:10.741Z,51.58
2016-11-07T15:03:21.367Z,52.16
2016-11-07T15:04:31.998Z,52.06
2016-11-07T15:05:42.621Z,52.72
2016-11-07T15:06:53.242Z,51.94
2016-11-07T15:08:04.269Z,51.67
2016-11-07T15:09:14.896Z,52.04
2016-11-07T15:10:25.970Z,51.87
2016-11-07T15:13:02.230Z,52.16
2016-11-07T15:14:12.892Z,50.41
2016-11-07T15:15:23.516Z,50.6
2016-11-07T15:17:00.024Z,51.29
2016-11-07T15:18:10.631Z,50.9
2016-11-07T15:19:21.047Z,51.67
2016-11-07T15:20:46.212Z,50.99
2016-11-07T15:22:11.662Z,51.19
2016-11-07T15:23:22.074Z,52.04
2016-11-07T15:24:32.529Z,51.33
2016-11-07T15:25:43.228Z,51.94
2016-11-07T15:26:53.766Z,51.17
2016-11-07T15:28:04.693Z,50.58
2016-11-07T15:29:15.630Z,50.19
2016-11-07T15:30:26.564Z,50.21
2016-11-07T15:31:37.534Z,50.12
2016-11-07T15:32:48.065Z,50.41
2016-11-07T15:33:58.598Z,50.51
2016-11-07T15:35:09.330Z,50.9
2016-11-07T15:36:20.109Z,50.14
2016-11-07T15:37:45.169Z,51.02
2016-11-07T15:38:55.705Z,52.36
2016-11-07T15:40:08.718Z,52.33
2016-11-07T15:42:46.068Z,50.19
2016-11-07T15:43:56.790Z,51.07
2016-11-07T15:45:09.914Z,50.87
2016-11-07T15:46:20.633Z,50.97
2016-11-07T15:47:45.697Z,50.87
2016-11-07T15:48:56.233Z,50.68
2016-11-07T15:50:21.407Z,51.65
2016-11-07T15:51:32.341Z,51.36
2016-11-07T15:52:57.397Z,50.6
2016-11-07T15:54:07.934Z,50.87
2016-11-07T15:55:18.657Z,51.19
2016-11-07T15:56:29.192Z,51.84
2016-11-07T15:57:39.727Z,51.55
2016-11-07T15:58:50.711Z,51.75
2016-11-07T16:00:01.745Z,51.84
2016-11-07T16:01:12.291Z,52.53
2016-11-07T16:02:23.221Z,54.18
2016-11-07T16:03:33.756Z,55.8
2016-11-07T16:04:44.875Z,55.64
2016-11-07T16:05:55.416Z,56.59
2016-11-07T16:07:05.978Z,56.68
2016-11-07T16:08:16.735Z,57.14
2016-11-07T16:09:27.309Z,57.53
2016-11-07T16:10:37.843Z,58.69
2016-11-07T16:11:48.375Z,59.92
2016-11-07T16:12:59.408Z,61.29
2016-11-07T16:14:09.944Z,61.29
2016-11-07T16:15:20.476Z,61.48
2016-11-07T16:16:31.009Z,61.87
2016-11-07T16:17:41.935Z,62.74
2016-11-07T16:18:52.465Z,62.81
2016-11-07T16:20:03.006Z,62.45
2016-11-07T16:21:13.737Z,62.81
2016-11-07T16:22:24.274Z,62.81
2016-11-07T16:23:34.807Z,63.1
2016-11-07T16:24:45.336Z,63.88
2016-11-07T16:25:57.465Z,64.65
2016-11-07T16:27:07.990Z,65.43
2016-11-07T16:28:18.442Z,65.69
2016-11-07T16:29:29.385Z,66.08
2016-11-07T16:30:39.830Z,66.56
2016-11-07T16:31:50.272Z,66.56
2016-11-07T16:33:00.685Z,67.54
2016-11-07T16:34:11.012Z,68.51
2016-11-07T16:35:21.368Z,68.51
2016-11-07T16:36:31.691Z,68.57
2016-11-07T16:37:42.497Z,69.44
2016-11-07T16:38:52.822Z,69.34
2016-11-07T16:40:03.661Z,68.08
2016-11-07T16:41:13.989Z,68.18
2016-11-07T16:42:24.343Z,67.4
2016-11-07T16:43:34.699Z,67.4
2016-11-07T16:44:59.591Z,68.57
2016-11-07T16:46:09.917Z,67.66
2016-11-07T16:47:20.241Z,68.54
2016-11-07T16:48:45.133Z,68.63
2016-11-07T16:49:55.455Z,68.15
2016-11-07T16:51:05.775Z,68.05
2016-11-07T16:52:16.575Z,69.67
2016-11-07T16:53:27.126Z,70.25
2016-11-07T16:54:37.485Z,69.95
2016-11-07T16:55:47.806Z,70.28
2016-11-07T16:56:58.125Z,69.41
2016-11-07T16:59:33.539Z,69.21
2016-11-07T17:00:43.860Z,68.92
2016-11-07T17:01:54.186Z,68.82
2016-11-07T17:03:04.510Z,68.34
2016-11-07T17:04:14.829Z,69.6
2016-11-07T17:05:25.187Z,69.41
2016-11-07T17:06:35.633Z,69.57
2016-11-07T17:07:46.073Z,69.57
2016-11-07T17:08:56.713Z,69.67
2016-11-07T17:10:07.192Z,69.57
2016-11-07T17:11:18.151Z,70.15
2016-11-07T17:12:28.591Z,70.05
2016-11-07T17:13:39.031Z,71.89
2016-11-07T17:14:49.506Z,72.05
2016-11-07T17:15:59.987Z,71.76
2016-11-07T17:17:10.445Z,71.95
2016-11-07T17:18:35.430Z,72.83
2016-11-07T17:19:45.869Z,73.02
2016-11-07T17:20:56.349Z,72.98
2016-11-07T17:22:06.786Z,73.08
2016-11-07T17:23:17.231Z,73.37
2016-11-07T17:24:28.159Z,73.57
2016-11-07T17:25:53.181Z,72.6
2016-11-07T17:27:03.620Z,72.79
2016-11-07T17:29:39.085Z,71.92
2016-11-07T17:30:50.313Z,72.6
2016-11-07T17:32:00.874Z,73.37
2016-11-07T17:33:11.408Z,73.47
2016-11-07T17:34:36.469Z,73.27
2016-11-07T17:35:47.002Z,73.66
2016-11-07T17:36:57.574Z,73.57
2016-11-07T17:38:08.107Z,74.43
2016-11-07T17:39:18.652Z,73.66
2016-11-07T17:40:29.183Z,73.57
2016-11-07T17:43:04.778Z,74.24
2016-11-07T17:44:15.315Z,74.15
2016-11-07T17:45:25.881Z,73.91
2016-11-07T17:46:36.416Z,74.49
2016-11-07T17:47:46.947Z,74.15
2016-11-07T17:48:57.481Z,73.66
2016-11-07T17:50:08.201Z,74.53
2016-11-07T17:51:18.733Z,74.59
2016-11-07T17:52:29.266Z,74.49
2016-11-07T17:53:39.803Z,74.88
2016-11-07T17:54:50.369Z,74.73
2016-11-07T17:56:00.901Z,75.11
2016-11-07T17:57:11.437Z,75.31
2016-11-07T17:58:21.967Z,74.49
2016-11-07T17:59:32.535Z,74.79
2016-11-07T18:00:43.066Z,75.27
2016-11-07T18:02:08.126Z,75.17
2016-11-07T18:03:18.660Z,75.17
2016-11-07T18:04:29.323Z,75.17
2016-11-07T18:05:39.870Z,75.27
2016-11-07T18:06:50.440Z,75.17
2016-11-07T18:08:01.003Z,75.65
2016-11-07T18:09:11.538Z,75.75
2016-11-07T18:10:22.073Z,76.24
2016-11-07T18:11:32.606Z,76.04
2016-11-07T18:12:43.642Z,76.14
2016-11-07T18:15:33.690Z,76.24
2016-11-07T18:16:59.161Z,76.68
2016-11-07T18:18:09.602Z,76.59
2016-11-07T18:19:20.142Z,76.62
2016-11-07T18:20:30.579Z,76.33
2016-11-07T18:21:41.048Z,76.14
2016-11-07T18:22:51.486Z,75.95
2016-11-07T18:24:01.960Z,76.72
2016-11-07T18:25:12.399Z,75.95
2016-11-07T18:26:22.842Z,76.14
2016-11-07T18:27:33.281Z,75.95
2016-11-07T18:28:43.723Z,75.85
2016-11-07T18:29:54.162Z,75.27
2016-11-07T18:31:05.190Z,76.14
2016-11-07T18:32:15.629Z,76.14
2016-11-07T18:33:26.074Z,76.04
2016-11-07T18:34:37.001Z,76.01
2016-11-07T18:35:47.446Z,76.59
2016-11-07T18:36:58.485Z,75.04
2016-11-07T18:38:08.929Z,75.13
2016-11-07T18:39:19.368Z,75.33
2016-11-07T18:40:29.810Z,76.1
2016-11-07T18:41:40.251Z,75.81
2016-11-07T18:42:50.793Z,75.81
2016-11-07T18:44:01.233Z,74.11
2016-11-07T18:45:11.670Z,74.85
2016-11-07T18:46:36.561Z,75.56
2016-11-07T18:47:46.883Z,74.79
2016-11-07T18:48:57.204Z,74.4
2016-11-07T18:50:08.005Z,74.65
2016-11-07T18:51:18.324Z,75.62
2016-11-07T18:52:28.643Z,75.23
2016-11-07T18:53:38.999Z,74.55
2016-11-07T18:54:49.318Z,74.75
2016-11-07T18:55:59.639Z,74.01
2016-11-07T18:57:24.610Z,74.3
2016-11-07T18:58:35.508Z,74.4
2016-11-07T18:59:45.829Z,72.75
2016-11-07T19:00:56.146Z,72.27
2016-11-07T19:02:06.471Z,71.98
2016-11-07T19:03:17.278Z,72.62
2016-11-07T19:04:29.839Z,72.62
2016-11-07T19:05:40.161Z,72.46
2016-11-07T19:06:50.486Z,72.66
2016-11-07T19:08:01.279Z,72.66
2016-11-07T19:09:11.637Z,72.08
2016-11-07T19:10:21.966Z,71.98
2016-11-07T19:11:32.287Z,71.5
2016-11-07T19:14:07.504Z,71.5
2016-11-07T19:15:17.835Z,71.4
2016-11-07T19:16:28.742Z,71.4
2016-11-07T19:17:39.065Z,71.59
2016-11-07T19:18:49.383Z,71.5
2016-11-07T19:20:14.276Z,71.4
2016-11-07T19:21:24.698Z,71.3
2016-11-07T19:22:35.028Z,71.3
2016-11-07T19:25:10.722Z,71.88
2016-11-07T19:26:21.046Z,72.66
2016-11-07T19:27:45.974Z,72.85
2016-11-07T19:28:56.298Z,73.14
2016-11-07T19:30:07.103Z,73.53
2016-11-07T19:31:17.430Z,74.36
2016-11-07T19:32:27.761Z,74.36
2016-11-07T19:33:52.656Z,74.36
2016-11-07T19:35:02.979Z,73.59
2016-11-07T19:36:13.304Z,73.78
2016-11-07T19:37:38.199Z,73.49
2016-11-07T19:38:48.520Z,73.39
2016-11-07T19:39:58.877Z,73.68
2016-11-07T19:41:09.203Z,73.59
2016-11-07T19:42:19.523Z,74.07
2016-11-07T19:43:30.326Z,73.97
2016-11-07T19:44:40.651Z,73.97
2016-11-07T19:45:50.973Z,73.88
2016-11-07T19:47:01.292Z,74.46
2016-11-07T19:48:12.087Z,74.17
2016-11-07T19:49:37.021Z,74.17
2016-11-07T19:50:47.345Z,73.49
2016-11-07T19:51:57.670Z,73.49
2016-11-07T19:53:07.993Z,74.17
2016-11-07T19:54:18.317Z,73.2
2016-11-07T19:55:28.643Z,73.68
2016-11-07T19:56:38.966Z,73.49
2016-11-07T19:57:49.770Z,73.39
2016-11-07T19:59:00.095Z,73.97
2016-11-07T20:00:10.845Z,73.88
2016-11-07T20:01:21.173Z,74.17
2016-11-07T20:02:31.493Z,74.27
2016-11-07T20:05:06.703Z,72.81
2016-11-07T20:06:31.590Z,73.1
2016-11-07T20:07:56.478Z,73.3
2016-11-07T20:09:07.275Z,73.49
2016-11-07T20:10:18.076Z,73.39
2016-11-07T20:11:28.399Z,73.3
2016-11-07T20:12:39.195Z,73.3
2016-11-07T20:13:49.523Z,72.78
2016-11-07T20:14:59.842Z,73.46
2016-11-07T20:16:10.202Z,73.26
2016-11-07T20:17:20.535Z,73.16
2016-11-07T20:18:30.860Z,74.32
2016-11-07T20:19:41.177Z,73.55
2016-11-07T20:20:51.706Z,73.46
2016-11-07T20:22:02.027Z,74.04
2016-11-07T20:23:12.826Z,73.94
2016-11-07T20:24:23.146Z,74.04
2016-11-07T20:25:33.469Z,73.94
2016-11-07T20:26:43.994Z,73.94
2016-11-07T20:28:08.883Z,74.38
2016-11-07T20:29:33.776Z,74.68
2016-11-07T20:30:44.102Z,74.87
2016-11-07T20:32:08.994Z,74.29
2016-11-07T20:33:19.353Z,74.87
2016-11-07T20:34:44.241Z,74.58
2016-11-07T20:35:55.033Z,74.68
2016-11-07T20:37:19.926Z,73.9
2016-11-07T20:38:30.247Z,74.19
2016-11-07T20:39:40.567Z,73.74
2016-11-07T20:40:50.891Z,74.1
2016-11-07T20:42:01.219Z,74.1
2016-11-07T20:43:12.217Z,73.94
2016-11-07T20:44:22.539Z,74.19
2016-11-07T20:45:32.865Z,74.68
2016-11-07T20:46:43.187Z,74.29
2016-11-07T20:48:08.078Z,75.64
2016-11-07T20:49:18.402Z,75.26
2016-11-07T20:50:28.759Z,75.26
2016-11-07T20:51:53.651Z,75.26
2016-11-07T20:53:03.985Z,76.12
2016-11-07T20:54:14.508Z,76.12
2016-11-07T20:55:39.412Z,76.12
2016-11-07T20:56:49.772Z,75.93
2016-11-07T20:58:00.112Z,75.26
2016-11-07T20:59:10.469Z,76.03
2016-11-07T21:00:20.948Z,75.84
2016-11-07T21:01:31.386Z,76.09
2016-11-07T21:02:41.824Z,76.12
2016-11-07T21:03:52.263Z,76.09
2016-11-07T21:05:02.703Z,76.42
2016-11-07T21:06:13.141Z,76.22
2016-11-07T21:07:23.583Z,76.61
2016-11-07T21:08:34.016Z,76.12
2016-11-07T21:09:44.450Z,76.12
2016-11-07T21:10:55.092Z,76.28
2016-11-07T21:12:05.541Z,76.37
2016-11-07T21:13:15.993Z,76.57
2016-11-07T21:14:26.464Z,76.57
2016-11-07T21:15:36.902Z,76.47
2016-11-07T21:16:47.446Z,76.76
2016-11-07T21:19:22.878Z,77.44
2016-11-07T21:20:47.861Z,77.98
2016-11-07T21:21:58.401Z,77.78
2016-11-07T21:23:08.883Z,78.66
2016-11-07T21:24:33.868Z,78.56
2016-11-07T21:25:44.310Z,79.04
2016-11-07T21:27:09.538Z,79.72
2016-11-07T21:28:20.478Z,79.72
2016-11-07T21:29:30.988Z,79.43
2016-11-07T21:30:41.434Z,79.04
2016-11-07T21:31:51.878Z,80
2016-11-07T21:33:02.416Z,79.81
2016-11-07T21:34:12.853Z,79.68
2016-11-07T21:35:23.291Z,80.26
2016-11-07T21:36:33.731Z,80.16
2016-11-07T21:37:58.716Z,80.16
2016-11-07T21:39:09.153Z,80.16
2016-11-07T21:40:19.596Z,80.39
2016-11-07T21:41:30.046Z,80.06
2016-11-07T21:42:40.485Z,79.97
2016-11-07T21:44:20.013Z,80.16
2016-11-07T21:45:44.999Z,80.16
2016-11-07T21:47:09.983Z,80.26
2016-11-07T21:48:20.423Z,80.16
2016-11-07T21:49:30.870Z,80.45
2016-11-07T21:50:41.798Z,80.26
2016-11-07T21:51:52.235Z,80.35
2016-11-07T21:53:02.676Z,80.64
2016-11-07T21:54:27.659Z,80.54
2016-11-07T21:55:38.303Z,80.83
2016-11-07T21:56:48.742Z,80.06
2016-11-07T21:57:59.698Z,80.64
2016-11-07T21:59:10.184Z,80.64
2016-11-07T22:00:35.658Z,80.64
2016-11-07T22:01:46.104Z,80.54
2016-11-07T22:02:56.542Z,80.35
2016-11-07T22:04:07.471Z,80.26
2016-11-07T22:05:18.017Z,80.16
2016-11-07T22:06:28.694Z,79.68
2016-11-07T22:07:39.135Z,79.97
2016-11-07T22:09:04.370Z,79.87
2016-11-07T22:10:14.815Z,79.97
2016-11-07T22:11:25.256Z,79.87
2016-11-07T22:12:35.743Z,79.39
2016-11-07T22:13:46.183Z,79.77
2016-11-07T22:14:56.823Z,79.97
2016-11-07T22:16:07.271Z,79.77
2016-11-07T22:17:17.717Z,79.87
2016-11-07T22:18:28.159Z,80.06
2016-11-07T22:19:38.614Z,79.77
2016-11-07T22:20:49.064Z,79.64
2016-11-07T22:21:59.986Z,79.68
2016-11-07T22:23:10.437Z,79.58
2016-11-07T22:24:20.880Z,79.68
2016-11-07T22:25:31.324Z,79.64
2016-11-07T22:26:56.507Z,79.74
2016-11-07T22:28:06.944Z,80.22
2016-11-07T22:29:17.386Z,80.12
2016-11-07T22:30:27.828Z,80.12
2016-11-07T22:31:38.371Z,80.12
2016-11-07T22:32:48.809Z,80.6
2016-11-07T22:33:59.248Z,80.6
2016-11-07T22:35:09.689Z,80.51
2016-11-07T22:36:20.132Z,80.41
2016-11-07T22:37:30.771Z,80.31
2016-11-07T22:38:41.222Z,80.69
2016-11-07T22:39:51.663Z,80.6
2016-11-07T22:41:02.106Z,80.69
2016-11-07T22:42:12.548Z,80.69
2016-11-07T22:43:23.011Z,81.09
2016-11-07T22:44:33.450Z,81.37
2016-11-07T22:45:43.888Z,81.27
2016-11-07T22:46:54.328Z,81.18
2016-11-07T22:48:04.765Z,81.27
2016-11-07T22:49:15.208Z,81.27
2016-11-07T22:51:50.628Z,81.37
2016-11-07T22:53:01.069Z,81.27
2016-11-07T22:54:11.504Z,81.27
2016-11-07T22:55:22.151Z,81.37
2016-11-07T22:56:47.133Z,81.18
2016-11-07T22:57:57.570Z,81.27
2016-11-07T22:59:08.010Z,80.89
2016-11-07T23:00:18.650Z,80.69
2016-11-07T23:01:29.132Z,80.89
2016-11-07T23:02:39.573Z,81.27
2016-11-07T23:03:50.013Z,81.09
2016-11-07T23:05:00.458Z,81.18
2016-11-07T23:06:10.904Z,81.18
2016-11-07T23:07:21.348Z,81.09
2016-11-07T23:08:31.790Z,81.66
2016-11-07T23:09:42.229Z,81.37
2016-11-07T23:10:52.673Z,81.66
2016-11-07T23:12:03.114Z,81.37
2016-11-07T23:13:28.098Z,81.57
2016-11-07T23:14:38.537Z,81.37
2016-11-07T23:15:49.011Z,81.66
2016-11-07T23:16:59.649Z,82.05
2016-11-07T23:18:24.636Z,81.95
2016-11-07T23:19:35.076Z,82.1
2016-11-07T23:20:45.515Z,81.85
2016-11-07T23:21:56.055Z,82.68
2016-11-07T23:24:31.484Z,82.05
2016-11-07T23:25:41.969Z,82.34
2016-11-07T23:26:52.607Z,82.14
2016-11-07T23:28:17.592Z,82.53
2016-11-07T23:29:28.033Z,81.57
2016-11-07T23:30:38.476Z,82.29
2016-11-07T23:31:48.912Z,82.68
2016-11-07T23:32:59.550Z,82.29
2016-11-07T23:34:09.991Z,82.1
2016-11-07T23:35:20.429Z,82.39
2016-11-07T23:36:30.877Z,82.2
2016-11-07T23:37:41.514Z,82.01
2016-11-07T23:38:51.990Z,82.29
2016-11-07T23:40:02.430Z,82.01
2016-11-07T23:41:12.870Z,82.2
2016-11-07T23:42:23.312Z,82.1
2016-11-07T23:43:33.759Z,82.2
2016-11-07T23:46:09.187Z,82.78
2016-11-07T23:47:19.628Z,82.92
2016-11-07T23:48:30.070Z,82.97
2016-11-07T23:49:40.510Z,83.07
2016-11-07T23:50:50.953Z,82.87
2016-11-07T23:52:01.389Z,83.07
2016-11-07T23:53:11.826Z,83.07
2016-11-07T23:54:22.266Z,83.74
2016-11-07T23:55:32.755Z,83.45
2016-11-07T23:56:43.193Z,83.84
2016-11-07T23:57:53.638Z,83.84
2016-11-07T23:59:04.121Z,84.12
